Time;durP1;ratioP1;P1;durP2;ratioP2;P2;SDS_P1;SDS_P2;PMS_P1;PMS_P2;Temp;Humidity;BMP_temperature;BMP_pressure;BME280_temperature;BME280_humidity;BME280_pressure;Samples;Min_cycle;Max_cycle;Signal;HPM_P1;HPM_P2
2022/05/07 00:00:50;;;;;;;13.03;7.60;;;;;;;15.39;53.14;98053.13;5019185;28;20208;-71
2022/05/07 00:03:16;;;;;;;12.20;7.63;;;;;;;15.25;53.03;98048.50;5014562;28;20602;-70
2022/05/07 00:05:41;;;;;;;9.93;7.67;;;;;;;15.14;53.25;98039.88;5014617;28;20276;-70
2022/05/07 00:08:07;;;;;;;9.43;7.53;;;;;;;15.23;53.36;98037.28;5013883;28;20522;-70
2022/05/07 00:10:32;;;;;;;9.70;7.17;;;;;;;15.14;53.66;98039.88;5014314;28;20208;-69
2022/05/07 00:12:58;;;;;;;9.77;6.60;;;;;;;15.15;53.55;98040.72;5014184;28;20180;-70
2022/05/07 00:15:23;;;;;;;10.37;7.10;;;;;;;15.19;53.24;98039.38;4996247;28;20568;-70
2022/05/07 00:18:01;;;;;;;11.47;7.07;;;;;;;15.07;53.41;98038.88;4996039;28;20176;-72
2022/05/07 00:20:28;;;;;;;8.67;6.87;;;;;;;14.98;53.56;98039.84;5003841;28;20195;-72
2022/05/07 00:22:54;;;;;;;13.13;6.43;;;;;;;14.88;53.81;98032.88;5012808;28;20432;-71
2022/05/07 00:25:19;;;;;;;9.13;6.37;;;;;;;14.84;53.99;98033.34;5013992;28;20530;-71
2022/05/07 00:27:45;;;;;;;14.30;7.00;;;;;;;14.87;53.52;98025.94;5013351;28;20521;-71
2022/05/07 00:30:11;;;;;;;8.13;6.30;;;;;;;14.71;53.97;98029.34;5013459;28;20279;-72
2022/05/07 00:32:36;;;;;;;7.93;6.47;;;;;;;14.82;53.52;98024.75;5013437;28;20200;-71
2022/05/07 00:35:02;;;;;;;10.73;7.10;;;;;;;14.89;53.25;98023.97;5013661;28;20216;-71
2022/05/07 00:37:27;;;;;;;11.40;7.03;;;;;;;14.77;53.48;98027.06;4996452;28;20172;-71
2022/05/07 00:39:53;;;;;;;7.17;6.47;;;;;;;14.61;53.85;98025.97;5014110;28;20659;-71
2022/05/07 00:42:20;;;;;;;8.77;7.10;;;;;;;14.67;53.90;98022.75;4995967;28;20885;-71
2022/05/07 00:44:46;;;;;;;7.80;6.63;;;;;;;14.65;53.35;98029.13;4979768;28;20230;-72
2022/05/07 00:47:14;;;;;;;11.90;6.83;;;;;;;14.67;53.32;98029.78;5013431;28;20689;-71
2022/05/07 00:49:47;;;;;;;8.93;7.27;;;;;;;14.65;53.59;98026.47;5013582;28;20880;-71
2022/05/07 00:52:13;;;;;;;10.37;7.40;;;;;;;14.64;53.65;98024.81;4995514;28;20430;-70
2022/05/07 00:54:40;;;;;;;10.27;7.40;;;;;;;14.50;53.99;98023.63;5012823;28;20462;-70
2022/05/07 00:57:08;;;;;;;10.33;6.10;;;;;;;14.34;54.38;98016.44;5013454;28;20431;-68
2022/05/07 00:59:33;;;;;;;11.57;6.50;;;;;;;14.43;54.11;98012.88;4996508;28;20529;-71
2022/05/07 01:01:59;;;;;;;14.57;7.03;;;;;;;14.46;54.16;98009.91;5013296;28;20462;-71
2022/05/07 01:04:24;;;;;;;6.83;6.20;;;;;;;14.50;53.94;98013.88;5013369;28;20180;-73
2022/05/07 01:06:50;;;;;;;9.60;6.20;;;;;;;14.53;53.00;98004.84;5013174;28;20180;-71
2022/05/07 01:09:16;;;;;;;7.63;6.70;;;;;;;14.50;53.65;98011.25;5012760;28;20704;-71
2022/05/07 01:11:42;;;;;;;6.37;5.77;;;;;;;14.56;53.40;98009.78;5013342;28;20270;-71
2022/05/07 01:14:07;;;;;;;8.87;6.33;;;;;;;14.47;53.59;98006.31;4994885;28;20184;-71
2022/05/07 01:16:33;;;;;;;8.00;6.27;;;;;;;14.40;53.54;98007.91;5012826;28;20914;-68
2022/05/07 01:18:58;;;;;;;8.53;7.40;;;;;;;14.27;54.48;98003.88;5012839;28;20187;-71
2022/05/07 01:21:24;;;;;;;10.17;7.13;;;;;;;14.35;54.01;98004.91;5004887;28;20204;-71
2022/05/07 01:23:49;;;;;;;10.20;6.77;;;;;;;14.38;53.76;97997.50;5012869;28;20413;-71
2022/05/07 01:26:20;;;;;;;7.27;6.50;;;;;;;14.18;54.02;98002.19;5012111;28;20177;-71
2022/05/07 01:28:46;;;;;;;7.57;5.67;;;;;;;14.24;53.79;98000.72;5012778;28;20184;-70
2022/05/07 01:31:11;;;;;;;7.00;6.30;;;;;;;14.01;54.08;98006.53;5012680;28;20465;-71
2022/05/07 01:33:38;;;;;;;6.70;6.00;;;;;;;14.12;53.91;98014.19;4995367;28;20203;-69
2022/05/07 01:36:11;;;;;;;7.13;6.43;;;;;;;14.17;53.70;98011.06;5012810;28;20238;-70
2022/05/07 01:38:37;;;;;;;7.50;6.73;;;;;;;14.11;53.78;98015.16;5012418;28;20466;-69
2022/05/07 01:41:03;;;;;;;6.93;6.20;;;;;;;14.13;53.64;98007.09;5011987;28;20521;-70
2022/05/07 01:43:32;;;;;;;8.63;6.73;;;;;;;14.22;53.74;98003.53;5012556;28;21082;-70
2022/05/07 01:45:58;;;;;;;6.07;5.47;;;;;;;14.25;53.49;98002.38;5012329;28;20650;-70
2022/05/07 01:48:24;;;;;;;7.03;6.30;;;;;;;14.20;53.45;98002.03;4986722;28;20484;-70
2022/05/07 01:50:49;;;;;;;7.17;5.80;;;;;;;14.20;53.62;98000.22;5014820;28;20459;-71
2022/05/07 01:53:15;;;;;;;8.43;5.80;;;;;;;14.12;53.28;98008.06;5012548;28;20223;-70
2022/05/07 01:55:41;;;;;;;7.77;6.17;;;;;;;14.10;53.24;98004.78;5011966;28;20246;-70
2022/05/07 01:58:07;;;;;;;7.23;6.50;;;;;;;14.11;53.73;98006.44;5011414;28;20323;-69
2022/05/07 02:00:34;;;;;;;6.93;6.23;;;;;;;14.03;53.69;97996.66;5012258;28;20204;-70
2022/05/07 02:03:00;;;;;;;6.63;5.93;;;;;;;14.07;53.65;98007.72;5012096;28;20434;-70
2022/05/07 02:05:27;;;;;;;6.77;5.83;;;;;;;14.08;53.85;98002.28;5012136;28;20898;-70
2022/05/07 02:07:53;;;;;;;9.33;5.93;;;;;;;13.92;53.80;98008.28;5012390;28;21033;-71
2022/05/07 02:10:19;;;;;;;6.57;5.90;;;;;;;13.97;53.54;98003.38;5011677;28;20492;-69
2022/05/07 02:12:44;;;;;;;9.37;5.50;;;;;;;13.94;53.55;98001.06;5012312;28;20451;-70
2022/05/07 02:15:10;;;;;;;8.03;5.80;;;;;;;13.92;53.53;98010.91;4994525;28;20204;-69
2022/05/07 02:17:35;;;;;;;7.13;6.43;;;;;;;13.82;53.63;98010.19;5011662;28;20180;-70
2022/05/07 02:20:02;;;;;;;8.00;5.97;;;;;;;13.85;53.92;98007.25;5011763;28;20286;-69
2022/05/07 02:22:27;;;;;;;6.40;5.80;;;;;;;13.84;53.85;98005.59;5011930;28;20177;-71
2022/05/07 02:24:53;;;;;;;7.50;5.67;;;;;;;13.82;53.86;98004.91;5011732;28;20415;-70
2022/05/07 02:27:18;;;;;;;8.23;5.70;;;;;;;13.70;54.41;98004.31;5010740;28;20275;-70
2022/05/07 02:29:44;;;;;;;7.87;5.90;;;;;;;13.64;54.40;97997.84;5011593;28;20206;-71
2022/05/07 02:32:13;;;;;;;9.30;6.07;;;;;;;13.67;54.20;98002.81;4993923;28;20200;-69
2022/05/07 02:34:40;;;;;;;7.80;5.50;;;;;;;13.78;53.68;98006.19;5011617;28;20234;-70
2022/05/07 02:37:06;;;;;;;10.40;5.60;;;;;;;13.77;53.91;97999.25;5011403;28;20435;-70
2022/05/07 02:39:32;;;;;;;7.53;5.43;;;;;;;13.68;53.84;98003.63;5011478;28;20424;-70
2022/05/07 02:44:43;;;;;;;8.80;6.00;;;;;;;13.54;54.28;98005.03;4991151;28;20484;-73
2022/05/07 02:47:08;;;;;;;9.47;6.73;;;;;;;13.43;54.56;98000.81;4991686;28;20518;-70
2022/05/07 02:49:34;;;;;;;7.50;6.10;;;;;;;13.53;53.66;98003.38;5011545;28;20210;-69
2022/05/07 02:52:00;;;;;;;7.60;5.30;;;;;;;13.50;54.55;98008.94;4993584;28;20180;-70
2022/05/07 02:54:26;;;;;;;6.73;5.40;;;;;;;13.54;53.96;98002.38;5011476;28;20357;-71
2022/05/07 02:56:51;;;;;;;6.43;5.17;;;;;;;13.59;53.59;98002.78;4993309;28;20342;-70
2022/05/07 02:59:17;;;;;;;6.87;6.20;;;;;;;13.49;53.64;98000.22;5011084;28;20675;-70
2022/05/07 03:01:43;;;;;;;7.03;6.23;;;;;;;13.54;53.46;97999.75;5011290;28;20271;-70
2022/05/07 03:04:09;;;;;;;11.50;7.00;;;;;;;13.56;53.74;98003.06;5011368;28;20190;-71
2022/05/07 03:06:35;;;;;;;8.70;6.53;;;;;;;13.37;53.99;98004.03;5010519;28;20321;-69
2022/05/07 03:09:01;;;;;;;6.67;5.97;;;;;;;13.37;54.27;98010.09;4993144;28;20438;-71
2022/05/07 03:11:27;;;;;;;9.33;6.90;;;;;;;13.47;53.52;98011.88;5011355;28;20447;-70
2022/05/07 03:13:52;;;;;;;6.90;5.70;;;;;;;13.37;54.19;98004.84;5011450;28;20269;-71
2022/05/07 03:16:18;;;;;;;7.13;5.70;;;;;;;13.42;53.51;98011.50;5011929;28;20354;-70
2022/05/07 03:18:43;;;;;;;6.90;6.17;;;;;;;13.33;53.90;98006.13;5015139;28;20191;-71
2022/05/07 03:21:09;;;;;;;7.20;5.80;;;;;;;13.28;53.83;98002.28;5014451;28;20691;-70
2022/05/07 03:23:34;;;;;;;9.77;6.30;;;;;;;13.20;54.34;98005.69;5015215;28;20189;-70
2022/05/07 03:26:00;;;;;;;8.07;5.63;;;;;;;13.16;54.70;98006.94;4996722;28;20550;-70
2022/05/07 03:28:25;;;;;;;10.43;5.80;;;;;;;13.06;54.36;97999.94;5015023;28;20180;-70
2022/05/07 03:30:51;;;;;;;8.70;5.60;;;;;;;13.12;54.22;98002.94;5014657;28;20346;-70
2022/05/07 03:33:16;;;;;;;10.60;6.17;;;;;;;13.22;54.21;98001.09;4996952;28;20192;-70
2022/05/07 03:35:43;;;;;;;6.63;5.70;;;;;;;13.16;54.12;98001.69;5014524;28;20204;-70
2022/05/07 03:38:10;;;;;;;10.10;6.10;;;;;;;13.27;53.79;98001.47;5014015;28;20207;-69
2022/05/07 03:40:35;;;;;;;8.53;6.07;;;;;;;13.14;53.86;98001.84;5014643;28;20454;-69
2022/05/07 03:43:03;;;;;;;7.60;5.47;;;;;;;13.20;54.20;98005.69;5011769;28;20683;-69
2022/05/07 03:45:29;;;;;;;8.37;5.87;;;;;;;13.23;53.88;97996.63;4991614;28;20211;-72
2022/05/07 03:47:55;;;;;;;6.13;5.53;;;;;;;13.21;53.99;97994.16;5008748;28;20434;-70
2022/05/07 03:50:21;;;;;;;9.10;5.47;;;;;;;13.01;54.36;97998.75;5013789;28;20451;-71
2022/05/07 03:55:30;;;;;;;6.93;5.53;;;;;;;12.92;54.70;98003.06;5009186;28;20207;-70
2022/05/07 03:57:55;;;;;;;5.70;5.10;;;;;;;12.95;54.30;98005.41;5013573;28;20473;-70
2022/05/07 04:00:21;;;;;;;6.63;5.93;;;;;;;12.97;54.39;98003.47;5016468;28;20204;-71
2022/05/07 04:02:46;;;;;;;7.50;6.00;;;;;;;13.02;53.82;98006.47;5013541;28;20189;-69
2022/05/07 04:05:12;;;;;;;6.80;5.73;;;;;;;13.03;54.15;98012.56;5013697;28;20188;-71
2022/05/07 04:07:37;;;;;;;7.23;5.63;;;;;;;13.03;53.81;98005.50;4996114;28;20207;-70
2022/05/07 04:10:04;;;;;;;7.37;6.07;;;;;;;13.03;54.10;98002.88;5012750;28;20216;-71
2022/05/07 04:12:29;;;;;;;5.90;5.30;;;;;;;13.05;53.64;98003.56;5013505;28;20188;-70
2022/05/07 04:14:59;;;;;;;5.60;5.03;;;;;;;12.90;54.25;98005.88;5013761;28;20989;-71
2022/05/07 04:17:25;;;;;;;6.00;5.50;;;;;;;12.81;54.85;98008.53;4989013;28;20180;-70
2022/05/07 04:19:51;;;;;;;6.20;5.60;;;;;;;12.87;54.42;98000.03;5013102;28;20494;-71
2022/05/07 04:22:16;;;;;;;9.90;6.00;;;;;;;12.92;54.56;98008.34;5013444;28;20438;-69
2022/05/07 04:24:43;;;;;;;6.00;5.40;;;;;;;13.03;53.95;98009.94;5013806;28;20188;-70
2022/05/07 04:27:09;;;;;;;6.17;5.57;;;;;;;12.83;54.44;98010.03;5012138;28;20197;-71
2022/05/07 04:29:35;;;;;;;7.70;6.17;;;;;;;12.98;54.35;98005.09;5012178;28;20435;-70
2022/05/07 04:32:00;;;;;;;7.27;6.33;;;;;;;13.01;53.84;98007.44;5012684;28;20646;-70
2022/05/07 04:34:28;;;;;;;9.00;6.10;;;;;;;13.02;54.16;98017.00;5013383;28;20212;-70
2022/05/07 04:36:54;;;;;;;7.77;5.93;;;;;;;13.04;54.40;98017.69;5012548;28;20731;-71
2022/05/07 04:39:20;;;;;;;7.83;5.60;;;;;;;12.91;54.73;98014.56;5012847;28;20526;-71
2022/05/07 04:41:45;;;;;;;9.30;5.47;;;;;;;13.04;54.69;98019.50;5010611;28;20184;-69
2022/05/07 04:44:12;;;;;;;7.27;5.97;;;;;;;12.95;54.98;98015.94;5012922;28;20428;-70
2022/05/07 04:46:37;;;;;;;10.03;6.50;;;;;;;13.09;54.53;98021.69;4977262;28;20239;-70
2022/05/07 04:49:05;;;;;;;7.77;5.63;;;;;;;13.10;54.81;98018.88;5012845;28;20431;-70
2022/05/07 04:51:31;;;;;;;7.07;5.87;;;;;;;13.12;54.90;98027.47;5012916;28;20224;-70
2022/05/07 04:53:56;;;;;;;8.63;6.37;;;;;;;13.19;54.85;98023.25;5009553;28;20431;-71
2022/05/07 04:56:24;;;;;;;6.80;5.33;;;;;;;13.24;55.21;98019.34;5012182;28;20478;-69
2022/05/07 04:58:51;;;;;;;7.83;5.73;;;;;;;13.29;54.90;98017.94;5012840;28;20530;-70
2022/05/07 05:01:16;;;;;;;8.10;6.17;;;;;;;13.44;55.07;98025.34;4990904;28;20455;-70
2022/05/07 05:03:42;;;;;;;7.70;5.73;;;;;;;13.43;55.44;98023.69;5012785;28;20422;-70
2022/05/07 05:06:07;;;;;;;10.13;6.93;;;;;;;13.44;55.30;98031.41;5012651;28;20192;-71
2022/05/07 05:08:33;;;;;;;12.47;6.50;;;;;;;13.45;55.27;98024.38;4994619;28;20181;-69
2022/05/07 05:10:58;;;;;;;8.63;6.40;;;;;;;13.44;55.64;98027.97;5012780;28;20223;-70
2022/05/07 05:13:24;;;;;;;7.07;6.37;;;;;;;13.55;55.56;98026.91;5004571;28;20191;-71
2022/05/07 05:15:50;;;;;;;15.30;6.47;;;;;;;13.69;55.49;98028.19;5012063;28;20252;-68
2022/05/07 05:18:16;;;;;;;7.20;6.37;;;;;;;13.79;55.11;98028.94;5010136;28;20307;-67
2022/05/07 05:20:41;;;;;;;7.33;6.63;;;;;;;13.81;55.92;98032.25;5011819;28;20538;-67
2022/05/07 05:23:07;;;;;;;10.77;6.47;;;;;;;13.91;55.45;98038.25;5010956;28;20223;-70
2022/05/07 05:25:32;;;;;;;6.27;5.53;;;;;;;14.00;55.44;98036.50;5004780;28;20180;-69
2022/05/07 05:27:58;;;;;;;12.80;6.33;;;;;;;14.05;55.30;98038.66;5010089;28;20188;-69
2022/05/07 05:30:24;;;;;;;12.47;7.00;;;;;;;14.15;55.72;98039.38;5011555;28;20316;-68
2022/05/07 05:32:49;;;;;;;10.07;7.20;;;;;;;14.23;55.84;98033.34;4993394;28;20203;-67
2022/05/07 05:35:15;;;;;;;10.27;6.47;;;;;;;14.40;55.54;98032.47;4994056;28;20459;-69
2022/05/07 05:37:40;;;;;;;10.87;7.20;;;;;;;14.59;55.24;98041.97;5010975;28;20193;-69
2022/05/07 05:40:07;;;;;;;16.40;6.87;;;;;;;14.72;55.23;98038.91;5010185;28;20296;-68
2022/05/07 05:42:32;;;;;;;10.10;6.63;;;;;;;14.86;55.33;98039.28;5010461;28;20192;-68
2022/05/07 05:44:58;;;;;;;9.37;7.77;;;;;;;14.92;55.12;98043.09;5011396;28;20434;-70
2022/05/07 05:47:24;;;;;;;8.70;7.80;;;;;;;14.97;55.52;98043.47;5007350;28;20678;-69
2022/05/07 05:49:50;;;;;;;7.10;6.40;;;;;;;15.15;55.50;98049.44;5011423;28;20208;-70
2022/05/07 05:52:15;;;;;;;7.30;6.43;;;;;;;15.39;55.09;98053.13;4992770;28;20439;-68
2022/05/07 05:54:41;;;;;;;11.33;8.13;;;;;;;15.65;54.60;98047.72;5010500;28;20220;-67
2022/05/07 05:57:06;;;;;;;9.43;6.77;;;;;;;15.79;54.42;98054.16;5012442;28;20184;-68
2022/05/07 05:59:32;;;;;;;10.13;7.63;;;;;;;15.97;54.07;98046.09;5011591;28;20324;-67
2022/05/07 06:01:57;;;;;;;12.53;7.30;;;;;;;16.12;54.03;98048.06;4995567;28;20188;-68
2022/05/07 06:04:23;;;;;;;10.77;7.00;;;;;;;16.27;53.56;98045.56;5014103;28;20184;-67
2022/05/07 06:06:48;;;;;;;11.90;7.60;;;;;;;16.43;52.65;98042.88;5011262;28;20191;-68
2022/05/07 06:09:14;;;;;;;18.43;8.13;;;;;;;16.57;52.63;98040.53;5010977;28;20607;-67
2022/05/07 06:11:39;;;;;;;10.73;7.90;;;;;;;16.79;52.68;98041.63;5011793;28;20223;-69
2022/05/07 06:14:05;;;;;;;9.17;7.70;;;;;;;16.99;52.46;98039.41;5011197;28;20200;-68
2022/05/07 06:16:30;;;;;;;12.73;7.97;;;;;;;17.18;51.46;98045.25;5011350;28;20341;-68
2022/05/07 06:18:56;;;;;;;9.80;7.40;;;;;;;17.23;47.98;98055.34;5011454;28;20176;-68
2022/05/07 06:21:22;;;;;;;11.30;7.90;;;;;;;17.41;48.38;98052.41;5011282;28;20204;-68
2022/05/07 06:23:47;;;;;;;12.93;7.00;;;;;;;17.63;47.86;98056.09;4977040;28;20191;-68
2022/05/07 06:28:58;;;;;;;10.20;6.40;;;;;;;17.93;45.47;98049.03;4992837;28;20604;-68
2022/05/07 06:31:24;;;;;;;8.43;6.70;;;;;;;18.08;45.99;98058.91;5017099;28;20443;-69
2022/05/07 06:33:49;;;;;;;11.80;9.80;;;;;;;18.24;46.25;98053.44;5009878;28;20434;-69
2022/05/07 06:36:15;;;;;;;10.03;7.53;;;;;;;18.45;46.36;98046.59;5009229;28;20204;-69
2022/05/07 06:38:40;;;;;;;9.30;7.93;;;;;;;18.61;46.51;98056.22;5009516;28;20188;-68
2022/05/07 06:41:06;;;;;;;8.63;6.50;;;;;;;18.82;46.17;98057.31;5010707;28;20327;-68
2022/05/07 06:43:33;;;;;;;8.97;7.20;;;;;;;18.95;45.73;98057.53;5011270;28;20203;-69
2022/05/07 06:45:58;;;;;;;9.30;7.20;;;;;;;19.16;45.72;98050.59;5012445;28;20181;-67
2022/05/07 06:48:24;;;;;;;12.07;8.20;;;;;;;19.35;44.96;98059.81;5011033;28;20427;-68
2022/05/07 06:50:51;;;;;;;8.07;7.37;;;;;;;19.54;44.63;98052.22;5011216;28;20212;-69
2022/05/07 06:53:16;;;;;;;10.80;6.90;;;;;;;19.71;44.03;98056.28;5011265;28;20957;-68
2022/05/07 06:55:58;;;;;;;9.77;7.07;;;;;;;19.87;43.67;98057.06;5011234;28;20462;-69
2022/05/07 06:58:31;;;;;;;15.63;7.00;;;;;;;20.00;41.91;98061.66;5011179;28;20185;-68
2022/05/07 07:01:00;;;;;;;7.23;6.20;;;;;;;20.14;42.75;98052.78;5012351;28;20443;-68
2022/05/07 07:03:26;;;;;;;8.90;6.63;;;;;;;20.35;42.90;98054.56;5011897;28;20485;-69
2022/05/07 07:05:53;;;;;;;10.27;6.70;;;;;;;20.55;43.22;98059.19;4994311;28;20431;-68
2022/05/07 07:08:19;;;;;;;7.27;6.57;;;;;;;20.59;41.74;98055.13;5011312;28;20439;-68
2022/05/07 07:10:45;;;;;;;7.40;6.10;;;;;;;20.77;41.32;98054.63;5011836;28;20447;-67
2022/05/07 07:13:11;;;;;;;12.03;6.60;;;;;;;20.92;41.27;98057.16;5011263;28;20431;-68
2022/05/07 07:15:39;;;;;;;7.37;5.83;;;;;;;21.03;40.50;98050.44;5011510;28;20969;-69
2022/05/07 07:18:09;;;;;;;10.27;6.90;;;;;;;21.00;40.13;98056.16;5009871;28;20435;-68
2022/05/07 07:20:37;;;;;;;8.17;6.80;;;;;;;21.17;40.05;98052.13;5011963;28;20449;-68
2022/05/07 07:23:02;;;;;;;13.73;9.20;;;;;;;21.25;38.27;98053.81;4992802;28;20435;-68
2022/05/07 07:25:28;;;;;;;13.90;11.00;;;;;;;21.38;37.81;98052.19;5011313;28;20430;-69
2022/05/07 07:27:53;;;;;;;14.20;10.17;;;;;;;21.49;37.84;98055.06;5010740;28;20180;-71
2022/05/07 07:30:19;;;;;;;16.57;11.40;;;;;;;21.56;37.39;98052.44;5010510;28;20727;-70
2022/05/07 07:32:44;;;;;;;12.53;10.50;;;;;;;21.69;37.00;98053.50;5010585;28;20207;-70
2022/05/07 07:35:10;;;;;;;13.63;10.37;;;;;;;21.60;36.51;98045.72;4993164;28;20240;-68
2022/05/07 07:37:35;;;;;;;11.47;8.50;;;;;;;21.59;37.26;98040.56;4997991;28;20188;-69
2022/05/07 07:40:02;;;;;;;7.40;6.80;;;;;;;21.86;37.89;98037.94;5010499;28;20255;-68
2022/05/07 07:42:27;;;;;;;7.77;6.97;;;;;;;22.00;37.39;98042.22;5011096;28;20195;-69
2022/05/07 07:48:03;;;;;;;9.80;6.97;;;;;;;22.26;36.12;98045.91;4969169;28;20233;-70
2022/05/07 07:50:31;;;;;;;7.03;6.30;;;;;;;22.32;36.65;98036.25;4988069;28;20459;-69
2022/05/07 07:53:20;;;;;;;11.40;7.93;;;;;;;22.48;36.84;98041.19;5011500;28;20434;-68
2022/05/07 07:55:45;;;;;;;10.83;7.43;;;;;;;22.61;36.26;98040.34;5005637;28;20969;-68
2022/05/07 07:58:12;;;;;;;11.00;7.80;;;;;;;22.74;36.33;98044.81;5010504;28;20434;-67
2022/05/07 08:00:38;;;;;;;12.90;8.13;;;;;;;22.85;35.94;98043.34;4993155;28;20236;-69
2022/05/07 08:03:11;;;;;;;12.33;8.60;;;;;;;22.96;36.02;98041.84;5012724;28;20453;-68
2022/05/07 08:05:37;;;;;;;9.43;8.53;;;;;;;23.01;35.49;98047.41;4997135;28;20180;-68
2022/05/07 08:13:36;;;;;;;9.90;8.47;;;;;;;23.38;34.94;98039.63;5007308;28;20453;-68
2022/05/07 08:16:03;;;;;;;9.73;8.60;;;;;;;23.52;34.77;98040.34;4996048;28;20961;-69
2022/05/07 08:18:28;;;;;;;9.50;8.50;;;;;;;23.59;35.22;98046.50;4996202;28;20439;-71
2022/05/07 08:20:55;;;;;;;11.60;8.93;;;;;;;23.72;34.62;98040.22;4996489;28;20458;-68
2022/05/07 08:23:20;;;;;;;12.17;8.70;;;;;;;23.85;34.68;98044.66;5013662;28;20184;-67
2022/05/07 08:25:46;;;;;;;11.10;9.77;;;;;;;23.94;34.60;98047.91;5013721;28;20424;-68
2022/05/07 08:28:11;;;;;;;11.17;9.70;;;;;;;24.05;34.63;98039.19;5013426;28;20196;-69
2022/05/07 08:30:37;;;;;;;11.77;9.60;;;;;;;24.27;34.35;98054.00;5013727;28;20541;-68
2022/05/07 08:33:04;;;;;;;11.03;9.50;;;;;;;24.43;33.99;98041.94;5013093;28;20204;-69
2022/05/07 08:35:30;;;;;;;11.37;9.73;;;;;;;24.48;33.44;98034.84;5013497;28;20208;-70
2022/05/07 08:37:55;;;;;;;12.97;9.90;;;;;;;24.58;33.34;98038.88;5013511;28;20423;-68
2022/05/07 08:40:22;;;;;;;10.00;9.00;;;;;;;24.65;33.00;98042.28;5013544;28;20204;-68
2022/05/07 08:42:47;;;;;;;11.67;10.43;;;;;;;24.78;32.56;98041.38;5013731;28;20698;-68
2022/05/07 08:45:13;;;;;;;11.63;9.93;;;;;;;24.77;32.37;98045.09;5013221;28;20467;-69
2022/05/07 08:47:40;;;;;;;12.00;9.83;;;;;;;24.90;32.57;98042.25;5013249;28;20184;-68
2022/05/07 08:50:08;;;;;;;13.63;10.33;;;;;;;25.00;32.48;98042.53;5013212;28;20451;-69
2022/05/07 08:52:36;;;;;;;12.33;10.87;;;;;;;25.08;31.79;98040.56;5013058;28;20422;-68
2022/05/07 08:55:02;;;;;;;14.10;9.90;;;;;;;25.17;32.09;98039.25;4995951;28;20865;-68
2022/05/07 08:57:29;;;;;;;15.90;11.10;;;;;;;25.35;31.98;98038.38;4995858;28;20482;-68
2022/05/07 08:59:55;;;;;;;12.00;9.53;;;;;;;25.47;32.17;98033.06;4995589;28;20274;-67
2022/05/07 09:02:20;;;;;;;12.60;10.90;;;;;;;25.46;31.52;98042.16;5013200;28;20432;-69
2022/05/07 09:04:58;;;;;;;11.40;9.67;;;;;;;25.52;31.20;98033.19;5013403;28;20176;-69
2022/05/07 09:07:24;;;;;;;12.73;9.63;;;;;;;25.68;30.99;98039.78;5013229;28;20185;-69
2022/05/07 09:09:51;;;;;;;15.10;9.80;;;;;;;25.81;30.57;98035.25;5014749;28;20502;-66
2022/05/07 09:12:28;;;;;;;11.40;10.17;;;;;;;25.64;30.54;98032.41;5012978;28;20200;-69
2022/05/07 09:15:04;;;;;;;12.83;10.30;;;;;;;25.79;31.32;98027.44;5012152;28;20467;-69
2022/05/07 09:17:30;;;;;;;13.63;9.77;;;;;;;25.83;30.64;98033.16;4995809;28;20426;-69
2022/05/07 09:19:55;;;;;;;10.70;7.23;;;;;;;26.00;30.05;98027.91;5013039;28;20439;-69
2022/05/07 09:22:21;;;;;;;10.40;8.07;;;;;;;26.29;30.11;98030.75;5012967;28;20215;-69
2022/05/07 09:24:54;;;;;;;10.17;7.33;;;;;;;26.63;30.17;98022.88;5010744;28;20179;-69
2022/05/07 09:27:19;;;;;;;10.47;6.53;;;;;;;26.79;28.84;98032.94;5012439;28;20200;-69
2022/05/07 09:29:45;;;;;;;10.23;7.27;;;;;;;26.24;28.24;98033.31;5012855;28;20455;-69
2022/05/07 09:32:15;;;;;;;7.20;6.50;;;;;;;26.18;28.28;98033.22;5011736;28;20262;-68
2022/05/07 09:37:33;;;;;;;7.77;6.13;;;;;;;26.61;28.28;98024.97;5004873;28;20420;-69
2022/05/07 09:40:03;;;;;;;10.90;6.27;;;;;;;26.72;27.30;98016.06;5012308;28;20451;-71
2022/05/07 09:42:30;;;;;;;7.97;5.40;;;;;;;26.85;27.00;98025.78;5012864;28;20428;-69
2022/05/07 09:44:56;;;;;;;6.10;5.43;;;;;;;27.07;26.91;98017.06;5012940;28;20422;-68
2022/05/07 09:47:22;;;;;;;6.50;5.57;;;;;;;27.29;26.25;98015.31;4994475;28;20423;-69
2022/05/07 09:52:32;;;;;;;10.90;5.97;;;;;;;27.38;26.49;98012.25;5005103;28;20188;-69
2022/05/07 09:57:41;;;;;;;4.50;3.80;;;;;;;27.26;24.27;98006.91;5006480;28;20459;-67
2022/05/07 10:00:11;;;;;;;6.87;2.80;;;;;;;27.39;24.05;98014.69;5012086;28;20494;-67
2022/05/07 10:02:40;;;;;;;2.90;2.50;;;;;;;27.65;23.78;98014.34;5012015;28;20216;-69
2022/05/07 10:05:13;;;;;;;4.07;3.00;;;;;;;27.57;23.47;98013.69;5011934;28;20435;-69
2022/05/07 10:07:57;;;;;;;4.90;3.10;;;;;;;27.73;23.22;98006.66;5011552;28;20517;-68
2022/05/07 10:10:25;;;;;;;4.97;3.03;;;;;;;27.71;23.58;98006.13;5011651;28;20204;-68
2022/05/07 10:12:59;;;;;;;6.33;2.90;;;;;;;27.66;23.96;98003.34;4994482;28;20474;-68
2022/05/07 10:15:25;;;;;;;3.83;2.60;;;;;;;28.05;24.47;98006.09;4986750;28;20451;-69
2022/05/07 10:18:17;;;;;;;5.27;2.90;;;;;;;28.30;22.85;98002.16;5011752;28;20468;-68
2022/05/07 10:20:48;;;;;;;3.63;2.17;;;;;;;28.27;22.38;98001.84;5008324;28;20974;-69
2022/05/07 10:23:15;;;;;;;4.80;2.20;;;;;;;28.36;22.05;97995.75;5011114;28;20462;-68
2022/05/07 10:25:43;;;;;;;7.00;2.60;;;;;;;28.30;22.58;98007.56;5011734;28;20419;-68
2022/05/07 10:28:11;;;;;;;3.30;1.90;;;;;;;28.47;21.44;98006.72;4993897;28;20961;-68
2022/05/07 10:30:51;;;;;;;3.73;1.90;;;;;;;28.72;21.36;97997.31;5011722;28;20446;-69
2022/05/07 10:33:18;;;;;;;7.97;2.50;;;;;;;28.76;21.16;97993.06;5011519;28;20492;-69
2022/05/07 10:35:53;;;;;;;2.50;2.27;;;;;;;28.77;20.54;97990.13;5011317;28;20451;-68
2022/05/07 10:38:37;;;;;;;5.40;2.77;;;;;;;29.01;21.47;97989.00;5011237;28;20542;-68
2022/05/07 10:41:05;;;;;;;3.30;2.07;;;;;;;29.17;21.56;97974.63;5011021;28;20482;-68
2022/05/07 10:43:38;;;;;;;4.47;2.20;;;;;;;29.09;21.48;97981.28;5009643;28;20427;-68
2022/05/07 10:46:12;;;;;;;12.27;10.97;;;;;;;29.24;20.80;97969.81;5011054;28;20782;-69
2022/05/07 10:48:45;;;;;;;4.67;3.70;;;;;;;29.42;20.76;97970.56;5011400;28;20423;-68
2022/05/07 10:51:21;;;;;;;9.10;5.87;;;;;;;29.21;20.78;97972.22;5011173;28;20776;-67
2022/05/07 10:53:49;;;;;;;4.50;3.10;;;;;;;28.78;21.28;97974.75;4993611;28;20439;-68
2022/05/07 10:56:18;;;;;;;3.53;2.93;;;;;;;28.88;21.80;97974.06;5010976;28;20491;-68
2022/05/07 10:58:48;;;;;;;3.10;2.80;;;;;;;28.85;20.87;97975.38;5009928;28;20503;-67
2022/05/07 11:01:16;;;;;;;6.17;3.23;;;;;;;28.80;21.20;97972.63;5010978;28;20436;-67
2022/05/07 11:03:41;;;;;;;7.73;3.20;;;;;;;29.06;21.24;97968.28;5011362;28;20427;-69
2022/05/07 11:06:07;;;;;;;7.83;2.93;;;;;;;29.24;21.06;97961.72;5009633;28;20467;-69
2022/05/07 11:08:35;;;;;;;2.73;2.50;;;;;;;29.31;20.92;97960.72;5011218;28;20224;-68
2022/05/07 11:11:08;;;;;;;4.63;2.40;;;;;;;28.90;21.19;97961.13;5010862;28;20220;-67
2022/05/07 11:13:57;;;;;;;5.60;2.63;;;;;;;28.25;21.55;97969.75;5011345;28;20419;-69
2022/05/07 11:16:24;;;;;;;5.33;2.60;;;;;;;28.23;23.32;97952.22;5012495;28;20463;-68
2022/05/07 11:18:51;;;;;;;3.67;2.90;;;;;;;28.65;22.70;97957.84;5011598;28;20427;-68
2022/05/07 11:21:18;;;;;;;6.60;2.80;;;;;;;28.46;22.88;97945.78;5010787;28;20527;-67
2022/05/07 11:23:44;;;;;;;6.70;3.60;;;;;;;28.72;23.09;97955.00;5010843;28;20948;-69
2022/05/07 11:26:16;;;;;;;6.43;2.90;;;;;;;28.64;22.99;97950.84;4993336;28;20430;-67
2022/05/07 11:28:44;;;;;;;7.30;3.40;;;;;;;28.38;22.91;97946.19;4993755;28;20186;-68
2022/05/07 11:31:11;;;;;;;4.00;2.50;;;;;;;28.53;23.27;97946.38;4996745;28;20454;-68
2022/05/07 11:33:38;;;;;;;3.40;3.10;;;;;;;28.54;22.69;97945.31;4993090;28;20443;-70
2022/05/07 11:36:06;;;;;;;6.03;3.20;;;;;;;28.66;23.43;97950.59;5009622;28;20431;-69
2022/05/07 11:38:34;;;;;;;4.83;3.07;;;;;;;28.74;23.62;97950.19;5013736;28;20242;-68
2022/05/07 11:41:12;;;;;;;5.97;2.60;;;;;;;28.66;22.71;97942.50;5014904;28;20459;-71
2022/05/07 11:46:22;;;;;;;5.60;2.40;;;;;;;28.63;21.95;97941.13;5014342;28;20419;-67
2022/05/07 11:48:48;;;;;;;9.17;2.50;;;;;;;28.59;22.37;97945.41;4997147;28;20429;-70
2022/05/07 11:51:23;;;;;;;3.03;2.70;;;;;;;28.68;22.77;97937.66;4996766;28;20243;-70
2022/05/07 11:53:48;;;;;;;3.60;2.30;;;;;;;28.49;22.45;97939.88;5014127;28;20184;-69
2022/05/07 11:56:13;;;;;;;3.87;2.50;;;;;;;28.27;21.88;97943.38;5014013;28;20459;-67